sensor_id;sensor_type;location;lat;lon;timestamp;pressure;altitude;pressure_sealevel;temperature;humidity
63907;BME280;50075;49.484;11.238;2024-02-14T00:00:10;98436.63;;;0.18;100.00
63907;BME280;50075;49.484;11.238;2024-02-14T00:02:43;98437.28;;;0.14;100.00
63907;BME280;50075;49.484;11.238;2024-02-14T00:05:10;98434.47;;;0.08;100.00
63907;BME280;50075;49.484;11.238;2024-02-14T00:07:37;98432.50;;;0.02;100.00
63907;BME280;50075;49.484;11.238;2024-02-14T00:10:02;98435.28;;;0.07;100.00
63907;BME280;50075;49.484;11.238;2024-02-14T00:12:28;98440.25;;;0.04;100.00
63907;BME280;50075;49.484;11.238;2024-02-14T00:14:53;98440.19;;;0.02;100.00
63907;BME280;50075;49.484;11.238;2024-02-14T00:17:18;98439.38;;;0.03;100.00
63907;BME280;50075;49.484;11.238;2024-02-14T00:19:44;98438.38;;;-0.01;100.00
63907;BME280;50075;49.484;11.238;2024-02-14T00:22:09;98434.19;;;0.02;100.00
63907;BME280;50075;49.484;11.238;2024-02-14T00:24:34;98436.81;;;0.03;100.00
63907;BME280;50075;49.484;11.238;2024-02-14T00:27:01;98432.66;;;0.05;100.00
63907;BME280;50075;49.484;11.238;2024-02-14T00:29:28;98427.25;;;-0.01;100.00
63907;BME280;50075;49.484;11.238;2024-02-14T00:31:53;98431.56;;;0.00;100.00
63907;BME280;50075;49.484;11.238;2024-02-14T00:34:19;98432.25;;;-0.04;100.00
63907;BME280;50075;49.484;11.238;2024-02-14T00:36:44;98432.69;;;-0.13;100.00
63907;BME280;50075;49.484;11.238;2024-02-14T00:39:09;98434.72;;;-0.24;100.00
63907;BME280;50075;49.484;11.238;2024-02-14T00:41:36;98439.25;;;-0.18;100.00
63907;BME280;50075;49.484;11.238;2024-02-14T00:44:01;98440.00;;;-0.21;100.00
63907;BME280;50075;49.484;11.238;2024-02-14T00:46:28;98443.22;;;-0.25;100.00
63907;BME280;50075;49.484;11.238;2024-02-14T00:48:54;98432.03;;;-0.27;100.00
63907;BME280;50075;49.484;11.238;2024-02-14T00:51:20;98437.13;;;-0.27;100.00
63907;BME280;50075;49.484;11.238;2024-02-14T00:53:46;98437.44;;;-0.21;100.00
63907;BME280;50075;49.484;11.238;2024-02-14T00:56:11;98441.16;;;-0.14;100.00
63907;BME280;50075;49.484;11.238;2024-02-14T00:58:36;98446.47;;;-0.09;100.00
63907;BME280;50075;49.484;11.238;2024-02-14T01:01:02;98442.88;;;0.05;100.00
63907;BME280;50075;49.484;11.238;2024-02-14T01:03:27;98446.78;;;0.17;100.00
63907;BME280;50075;49.484;11.238;2024-02-14T01:05:52;98445.19;;;0.38;100.00
63907;BME280;50075;49.484;11.238;2024-02-14T01:08:18;98443.00;;;0.46;100.00
63907;BME280;50075;49.484;11.238;2024-02-14T01:10:43;98441.44;;;0.50;100.00
63907;BME280;50075;49.484;11.238;2024-02-14T01:13:08;98440.78;;;0.54;100.00
63907;BME280;50075;49.484;11.238;2024-02-14T01:15:34;98441.59;;;0.53;100.00
63907;BME280;50075;49.484;11.238;2024-02-14T01:17:59;98443.06;;;0.48;100.00
63907;BME280;50075;49.484;11.238;2024-02-14T01:20:25;98438.81;;;0.48;100.00
63907;BME280;50075;49.484;11.238;2024-02-14T01:22:50;98438.88;;;0.50;100.00
63907;BME280;50075;49.484;11.238;2024-02-14T01:25:16;98440.09;;;0.58;100.00
63907;BME280;50075;49.484;11.238;2024-02-14T01:27:41;98446.34;;;0.65;100.00
63907;BME280;50075;49.484;11.238;2024-02-14T01:30:08;98447.25;;;0.66;100.00
63907;BME280;50075;49.484;11.238;2024-02-14T01:32:34;98448.78;;;0.62;100.00
63907;BME280;50075;49.484;11.238;2024-02-14T01:34:59;98447.44;;;0.70;100.00
63907;BME280;50075;49.484;11.238;2024-02-14T01:37:26;98443.94;;;0.68;100.00
63907;BME280;50075;49.484;11.238;2024-02-14T01:39:51;98443.88;;;0.67;100.00
63907;BME280;50075;49.484;11.238;2024-02-14T01:42:16;98447.09;;;0.62;100.00
63907;BME280;50075;49.484;11.238;2024-02-14T01:44:42;98441.91;;;0.61;100.00
63907;BME280;50075;49.484;11.238;2024-02-14T01:47:09;98440.16;;;0.60;100.00
63907;BME280;50075;49.484;11.238;2024-02-14T01:49:35;98444.41;;;0.59;100.00
63907;BME280;50075;49.484;11.238;2024-02-14T01:52:03;98442.78;;;0.61;100.00
63907;BME280;50075;49.484;11.238;2024-02-14T01:54:29;98436.88;;;0.62;100.00
63907;BME280;50075;49.484;11.238;2024-02-14T01:56:56;98426.47;;;0.59;100.00
63907;BME280;50075;49.484;11.238;2024-02-14T01:59:23;98433.34;;;0.60;100.00
63907;BME280;50075;49.484;11.238;2024-02-14T02:01:49;98424.75;;;0.58;100.00
63907;BME280;50075;49.484;11.238;2024-02-14T02:04:16;98422.84;;;0.54;100.00
63907;BME280;50075;49.484;11.238;2024-02-14T02:06:43;98422.72;;;0.51;100.00
63907;BME280;50075;49.484;11.238;2024-02-14T02:09:08;98422.59;;;0.48;100.00
63907;BME280;50075;49.484;11.238;2024-02-14T02:11:48;98419.91;;;0.45;100.00
63907;BME280;50075;49.484;11.238;2024-02-14T02:14:14;98413.81;;;0.43;100.00
63907;BME280;50075;49.484;11.238;2024-02-14T02:16:40;98412.28;;;0.46;100.00
63907;BME280;50075;49.484;11.238;2024-02-14T02:19:05;98406.56;;;0.52;100.00
63907;BME280;50075;49.484;11.238;2024-02-14T02:21:34;98406.81;;;0.58;100.00
63907;BME280;50075;49.484;11.238;2024-02-14T02:24:00;98413.00;;;0.63;100.00
63907;BME280;50075;49.484;11.238;2024-02-14T02:26:26;98409.63;;;0.64;100.00
63907;BME280;50075;49.484;11.238;2024-02-14T02:28:51;98405.31;;;0.63;100.00
63907;BME280;50075;49.484;11.238;2024-02-14T02:31:16;98403.91;;;0.70;100.00
63907;BME280;50075;49.484;11.238;2024-02-14T02:33:42;98396.56;;;0.78;100.00
63907;BME280;50075;49.484;11.238;2024-02-14T02:36:08;98401.78;;;0.81;100.00
63907;BME280;50075;49.484;11.238;2024-02-14T02:38:35;98397.06;;;0.90;100.00
63907;BME280;50075;49.484;11.238;2024-02-14T02:41:02;98403.94;;;0.92;100.00
63907;BME280;50075;49.484;11.238;2024-02-14T02:43:28;98406.50;;;0.92;100.00
63907;BME280;50075;49.484;11.238;2024-02-14T02:45:53;98408.66;;;0.82;100.00
63907;BME280;50075;49.484;11.238;2024-02-14T02:48:19;98408.94;;;0.88;100.00
63907;BME280;50075;49.484;11.238;2024-02-14T02:50:49;98406.50;;;0.92;100.00
63907;BME280;50075;49.484;11.238;2024-02-14T02:53:15;98406.00;;;1.00;100.00
63907;BME280;50075;49.484;11.238;2024-02-14T02:55:41;98403.75;;;1.08;100.00
63907;BME280;50075;49.484;11.238;2024-02-14T02:58:06;98402.34;;;1.15;100.00
63907;BME280;50075;49.484;11.238;2024-02-14T03:00:33;98399.06;;;0.98;100.00
63907;BME280;50075;49.484;11.238;2024-02-14T03:02:58;98397.19;;;0.94;100.00
63907;BME280;50075;49.484;11.238;2024-02-14T03:05:24;98395.06;;;0.83;100.00
63907;BME280;50075;49.484;11.238;2024-02-14T03:07:49;98400.34;;;0.67;100.00
63907;BME280;50075;49.484;11.238;2024-02-14T03:10:16;98402.63;;;0.60;100.00
63907;BME280;50075;49.484;11.238;2024-02-14T03:12:47;98399.59;;;0.49;100.00
63907;BME280;50075;49.484;11.238;2024-02-14T03:15:12;98392.94;;;0.53;100.00
63907;BME280;50075;49.484;11.238;2024-02-14T03:17:38;98387.75;;;0.51;100.00
63907;BME280;50075;49.484;11.238;2024-02-14T03:20:04;98391.66;;;0.43;100.00
63907;BME280;50075;49.484;11.238;2024-02-14T03:22:38;98379.47;;;0.37;100.00
63907;BME280;50075;49.484;11.238;2024-02-14T03:25:07;98386.00;;;0.31;100.00
63907;BME280;50075;49.484;11.238;2024-02-14T03:27:33;98382.56;;;0.30;100.00
63907;BME280;50075;49.484;11.238;2024-02-14T03:29:59;98384.59;;;0.37;100.00
63907;BME280;50075;49.484;11.238;2024-02-14T03:32:28;98384.41;;;0.33;100.00
63907;BME280;50075;49.484;11.238;2024-02-14T03:34:53;98387.00;;;0.34;100.00
63907;BME280;50075;49.484;11.238;2024-02-14T03:37:19;98385.28;;;0.33;100.00
63907;BME280;50075;49.484;11.238;2024-02-14T03:39:44;98386.44;;;0.20;100.00
63907;BME280;50075;49.484;11.238;2024-02-14T03:42:11;98389.16;;;0.25;100.00
63907;BME280;50075;49.484;11.238;2024-02-14T03:44:36;98387.97;;;0.36;100.00
63907;BME280;50075;49.484;11.238;2024-02-14T03:47:03;98387.28;;;0.41;100.00
63907;BME280;50075;49.484;11.238;2024-02-14T03:49:29;98389.25;;;0.46;100.00
63907;BME280;50075;49.484;11.238;2024-02-14T03:51:55;98392.00;;;0.51;100.00
63907;BME280;50075;49.484;11.238;2024-02-14T03:54:21;98380.06;;;0.51;100.00
63907;BME280;50075;49.484;11.238;2024-02-14T03:56:46;98383.56;;;0.54;100.00
63907;BME280;50075;49.484;11.238;2024-02-14T03:59:12;98386.94;;;0.52;100.00
63907;BME280;50075;49.484;11.238;2024-02-14T04:01:37;98396.25;;;0.50;100.00
63907;BME280;50075;49.484;11.238;2024-02-14T04:04:03;98399.28;;;0.42;100.00
63907;BME280;50075;49.484;11.238;2024-02-14T04:06:29;98395.78;;;0.40;100.00
63907;BME280;50075;49.484;11.238;2024-02-14T04:08:57;98401.31;;;0.49;100.00
63907;BME280;50075;49.484;11.238;2024-02-14T04:11:22;98399.66;;;0.51;100.00
63907;BME280;50075;49.484;11.238;2024-02-14T04:13:48;98403.88;;;0.49;100.00
63907;BME280;50075;49.484;11.238;2024-02-14T04:16:13;98402.38;;;0.34;100.00
63907;BME280;50075;49.484;11.238;2024-02-14T04:18:39;98394.78;;;0.16;100.00
63907;BME280;50075;49.484;11.238;2024-02-14T04:21:07;98402.75;;;0.04;100.00
63907;BME280;50075;49.484;11.238;2024-02-14T04:23:33;98403.88;;;-0.09;100.00
63907;BME280;50075;49.484;11.238;2024-02-14T04:25:58;98394.50;;;-0.28;100.00
63907;BME280;50075;49.484;11.238;2024-02-14T04:28:23;98392.16;;;-0.42;100.00
63907;BME280;50075;49.484;11.238;2024-02-14T04:30:48;98392.16;;;-0.42;100.00
63907;BME280;50075;49.484;11.238;2024-02-14T04:33:14;98394.88;;;-0.38;100.00
63907;BME280;50075;49.484;11.238;2024-02-14T04:35:39;98394.00;;;-0.39;100.00
63907;BME280;50075;49.484;11.238;2024-02-14T04:38:05;98389.75;;;-0.38;100.00
63907;BME280;50075;49.484;11.238;2024-02-14T04:40:30;98387.94;;;-0.41;100.00
63907;BME280;50075;49.484;11.238;2024-02-14T04:42:55;98385.75;;;-0.33;100.00
63907;BME280;50075;49.484;11.238;2024-02-14T04:45:21;98387.41;;;-0.34;100.00
63907;BME280;50075;49.484;11.238;2024-02-14T04:47:46;98389.66;;;-0.22;100.00
63907;BME280;50075;49.484;11.238;2024-02-14T04:50:11;98391.72;;;0.05;100.00
63907;BME280;50075;49.484;11.238;2024-02-14T04:52:37;98396.66;;;0.20;100.00
63907;BME280;50075;49.484;11.238;2024-02-14T04:55:02;98405.13;;;0.39;100.00
63907;BME280;50075;49.484;11.238;2024-02-14T04:57:28;98406.56;;;0.52;100.00
63907;BME280;50075;49.484;11.238;2024-02-14T04:59:54;98410.44;;;0.63;100.00
63907;BME280;50075;49.484;11.238;2024-02-14T05:02:19;98408.09;;;0.68;100.00
63907;BME280;50075;49.484;11.238;2024-02-14T05:04:44;98402.75;;;0.63;100.00
63907;BME280;50075;49.484;11.238;2024-02-14T05:07:10;98410.28;;;0.80;100.00
63907;BME280;50075;49.484;11.238;2024-02-14T05:09:35;98408.28;;;0.73;100.00
63907;BME280;50075;49.484;11.238;2024-02-14T05:12:01;98413.53;;;0.76;100.00
63907;BME280;50075;49.484;11.238;2024-02-14T05:14:27;98413.06;;;0.85;100.00
63907;BME280;50075;49.484;11.238;2024-02-14T05:16:56;98414.38;;;0.96;100.00
63907;BME280;50075;49.484;11.238;2024-02-14T05:19:21;98413.50;;;0.96;100.00
63907;BME280;50075;49.484;11.238;2024-02-14T05:21:46;98414.72;;;1.04;100.00
63907;BME280;50075;49.484;11.238;2024-02-14T05:24:12;98415.19;;;1.16;100.00
63907;BME280;50075;49.484;11.238;2024-02-14T05:26:37;98420.19;;;1.35;100.00
63907;BME280;50075;49.484;11.238;2024-02-14T05:29:02;98415.81;;;1.32;100.00
63907;BME280;50075;49.484;11.238;2024-02-14T05:31:45;98421.38;;;1.43;100.00
63907;BME280;50075;49.484;11.238;2024-02-14T05:34:11;98433.94;;;1.58;100.00
63907;BME280;50075;49.484;11.238;2024-02-14T05:36:36;98437.69;;;1.66;100.00
63907;BME280;50075;49.484;11.238;2024-02-14T05:39:02;98430.59;;;1.38;100.00
63907;BME280;50075;49.484;11.238;2024-02-14T05:41:28;98429.06;;;1.43;100.00
63907;BME280;50075;49.484;11.238;2024-02-14T05:43:53;98434.84;;;1.60;100.00
63907;BME280;50075;49.484;11.238;2024-02-14T05:46:18;98435.47;;;1.76;100.00
63907;BME280;50075;49.484;11.238;2024-02-14T05:48:46;98438.47;;;1.87;100.00
63907;BME280;50075;49.484;11.238;2024-02-14T05:51:11;98444.41;;;2.08;100.00
63907;BME280;50075;49.484;11.238;2024-02-14T05:53:36;98449.81;;;2.16;100.00
63907;BME280;50075;49.484;11.238;2024-02-14T05:56:02;98448.72;;;2.10;100.00
63907;BME280;50075;49.484;11.238;2024-02-14T05:58:27;98439.47;;;2.13;100.00
63907;BME280;50075;49.484;11.238;2024-02-14T06:00:54;98427.75;;;1.53;100.00
63907;BME280;50075;49.484;11.238;2024-02-14T06:03:20;98428.72;;;1.78;100.00
63907;BME280;50075;49.484;11.238;2024-02-14T06:05:46;98440.78;;;2.03;100.00
63907;BME280;50075;49.484;11.238;2024-02-14T06:08:11;98431.81;;;2.15;100.00
63907;BME280;50075;49.484;11.238;2024-02-14T06:10:37;98429.28;;;2.16;100.00
63907;BME280;50075;49.484;11.238;2024-02-14T06:13:04;98423.19;;;2.37;100.00
63907;BME280;50075;49.484;11.238;2024-02-14T06:15:29;98434.03;;;2.53;100.00
63907;BME280;50075;49.484;11.238;2024-02-14T06:17:54;98437.63;;;2.58;100.00
63907;BME280;50075;49.484;11.238;2024-02-14T06:20:20;98433.91;;;2.50;100.00
63907;BME280;50075;49.484;11.238;2024-02-14T06:22:45;98442.00;;;2.60;100.00
63907;BME280;50075;49.484;11.238;2024-02-14T06:25:11;98442.19;;;2.65;100.00
63907;BME280;50075;49.484;11.238;2024-02-14T06:27:36;98444.00;;;2.68;100.00
63907;BME280;50075;49.484;11.238;2024-02-14T06:30:03;98445.66;;;2.43;100.00
63907;BME280;50075;49.484;11.238;2024-02-14T06:32:28;98446.94;;;2.31;100.00
63907;BME280;50075;49.484;11.238;2024-02-14T06:34:54;98454.56;;;2.28;100.00
63907;BME280;50075;49.484;11.238;2024-02-14T06:37:19;98456.69;;;2.40;100.00
63907;BME280;50075;49.484;11.238;2024-02-14T06:39:45;98460.09;;;2.39;100.00
63907;BME280;50075;49.484;11.238;2024-02-14T06:42:10;98460.78;;;2.35;100.00
63907;BME280;50075;49.484;11.238;2024-02-14T06:44:35;98459.00;;;2.32;100.00
63907;BME280;50075;49.484;11.238;2024-02-14T06:47:01;98455.81;;;2.40;100.00
63907;BME280;50075;49.484;11.238;2024-02-14T06:49:26;98456.72;;;2.17;100.00
63907;BME280;50075;49.484;11.238;2024-02-14T06:51:51;98458.81;;;2.28;100.00
63907;BME280;50075;49.484;11.238;2024-02-14T06:54:16;98445.38;;;2.35;100.00
63907;BME280;50075;49.484;11.238;2024-02-14T06:56:44;98453.59;;;2.49;100.00
63907;BME280;50075;49.484;11.238;2024-02-14T06:59:10;98454.34;;;2.46;100.00
63907;BME280;50075;49.484;11.238;2024-02-14T07:01:35;98452.28;;;2.36;100.00
63907;BME280;50075;49.484;11.238;2024-02-14T07:04:00;98455.03;;;2.42;100.00
63907;BME280;50075;49.484;11.238;2024-02-14T07:06:26;98454.78;;;2.83;100.00
63907;BME280;50075;49.484;11.238;2024-02-14T07:08:52;98457.72;;;3.19;100.00
63907;BME280;50075;49.484;11.238;2024-02-14T07:11:18;98454.72;;;3.06;100.00
63907;BME280;50075;49.484;11.238;2024-02-14T07:13:43;98459.97;;;2.85;100.00
63907;BME280;50075;49.484;11.238;2024-02-14T07:16:09;98455.13;;;2.93;100.00
63907;BME280;50075;49.484;11.238;2024-02-14T07:18:34;98448.59;;;3.03;100.00
63907;BME280;50075;49.484;11.238;2024-02-14T07:21:00;98455.63;;;3.08;100.00
63907;BME280;50075;49.484;11.238;2024-02-14T07:23:26;98454.88;;;3.37;100.00
63907;BME280;50075;49.484;11.238;2024-02-14T07:25:52;98452.25;;;3.35;100.00
63907;BME280;50075;49.484;11.238;2024-02-14T07:28:18;98456.22;;;3.51;100.00
63907;BME280;50075;49.484;11.238;2024-02-14T07:30:44;98459.41;;;3.72;100.00
63907;BME280;50075;49.484;11.238;2024-02-14T07:33:09;98455.81;;;3.67;100.00
63907;BME280;50075;49.484;11.238;2024-02-14T07:35:36;98455.38;;;4.08;100.00
63907;BME280;50075;49.484;11.238;2024-02-14T07:38:02;98446.81;;;3.54;100.00
63907;BME280;50075;49.484;11.238;2024-02-14T07:40:27;98450.75;;;3.70;100.00
63907;BME280;50075;49.484;11.238;2024-02-14T07:42:56;98440.28;;;3.91;100.00
63907;BME280;50075;49.484;11.238;2024-02-14T07:45:21;98442.56;;;4.11;100.00
63907;BME280;50075;49.484;11.238;2024-02-14T07:47:49;98441.84;;;4.46;100.00
63907;BME280;50075;49.484;11.238;2024-02-14T07:50:14;98463.38;;;4.78;100.00
63907;BME280;50075;49.484;11.238;2024-02-14T07:52:43;98457.38;;;4.47;100.00
63907;BME280;50075;49.484;11.238;2024-02-14T07:55:09;98459.09;;;4.48;100.00
63907;BME280;50075;49.484;11.238;2024-02-14T07:57:41;98453.09;;;4.80;100.00
63907;BME280;50075;49.484;11.238;2024-02-14T08:00:08;98442.19;;;4.90;100.00
63907;BME280;50075;49.484;11.238;2024-02-14T08:02:34;98457.56;;;5.55;100.00
63907;BME280;50075;49.484;11.238;2024-02-14T08:05:00;98450.25;;;5.37;100.00
63907;BME280;50075;49.484;11.238;2024-02-14T08:07:25;98454.06;;;5.16;100.00
63907;BME280;50075;49.484;11.238;2024-02-14T08:09:50;98460.19;;;5.21;100.00
63907;BME280;50075;49.484;11.238;2024-02-14T08:12:16;98473.72;;;5.46;100.00
63907;BME280;50075;49.484;11.238;2024-02-14T08:14:41;98465.19;;;5.49;100.00
63907;BME280;50075;49.484;11.238;2024-02-14T08:17:06;98459.94;;;5.45;100.00
63907;BME280;50075;49.484;11.238;2024-02-14T08:19:32;98465.50;;;5.63;100.00
63907;BME280;50075;49.484;11.238;2024-02-14T08:21:57;98471.66;;;6.03;100.00
63907;BME280;50075;49.484;11.238;2024-02-14T08:24:28;98478.53;;;6.43;100.00
63907;BME280;50075;49.484;11.238;2024-02-14T08:26:54;98469.28;;;6.54;100.00
63907;BME280;50075;49.484;11.238;2024-02-14T08:29:20;98473.47;;;6.47;100.00
63907;BME280;50075;49.484;11.238;2024-02-14T08:31:46;98470.25;;;6.59;100.00
63907;BME280;50075;49.484;11.238;2024-02-14T08:34:11;98472.31;;;6.76;100.00
63907;BME280;50075;49.484;11.238;2024-02-14T08:36:37;98468.09;;;6.81;100.00
63907;BME280;50075;49.484;11.238;2024-02-14T08:39:09;98472.50;;;6.87;100.00
63907;BME280;50075;49.484;11.238;2024-02-14T08:41:38;98478.75;;;6.98;100.00
63907;BME280;50075;49.484;11.238;2024-02-14T08:44:04;98490.75;;;6.95;100.00
63907;BME280;50075;49.484;11.238;2024-02-14T08:46:32;98489.34;;;7.12;100.00
63907;BME280;50075;49.484;11.238;2024-02-14T08:49:00;98500.59;;;7.13;100.00
63907;BME280;50075;49.484;11.238;2024-02-14T08:51:28;98491.41;;;6.83;100.00
63907;BME280;50075;49.484;11.238;2024-02-14T08:53:53;98491.47;;;6.87;100.00
63907;BME280;50075;49.484;11.238;2024-02-14T08:56:21;98488.47;;;7.12;100.00
63907;BME280;50075;49.484;11.238;2024-02-14T08:58:48;98483.63;;;7.29;100.00
63907;BME280;50075;49.484;11.238;2024-02-14T09:01:13;98484.50;;;7.31;100.00
63907;BME280;50075;49.484;11.238;2024-02-14T09:03:39;98482.97;;;7.41;100.00
63907;BME280;50075;49.484;11.238;2024-02-14T09:06:05;98479.75;;;7.56;100.00
63907;BME280;50075;49.484;11.238;2024-02-14T09:08:30;98470.56;;;8.34;100.00
63907;BME280;50075;49.484;11.238;2024-02-14T09:10:56;98487.56;;;8.78;100.00
63907;BME280;50075;49.484;11.238;2024-02-14T09:13:22;98487.41;;;8.66;100.00
63907;BME280;50075;49.484;11.238;2024-02-14T09:15:47;98485.09;;;8.24;100.00
63907;BME280;50075;49.484;11.238;2024-02-14T09:18:15;98486.94;;;7.73;100.00
63907;BME280;50075;49.484;11.238;2024-02-14T09:20:41;98483.47;;;7.71;100.00
63907;BME280;50075;49.484;11.238;2024-02-14T09:23:11;98485.13;;;7.67;100.00
63907;BME280;50075;49.484;11.238;2024-02-14T09:25:36;98476.66;;;7.79;100.00
63907;BME280;50075;49.484;11.238;2024-02-14T09:28:02;98470.19;;;8.06;100.00
63907;BME280;50075;49.484;11.238;2024-02-14T09:30:27;98466.97;;;8.24;100.00
63907;BME280;50075;49.484;11.238;2024-02-14T09:32:52;98470.16;;;8.69;100.00
63907;BME280;50075;49.484;11.238;2024-02-14T09:35:18;98478.41;;;9.13;100.00
63907;BME280;50075;49.484;11.238;2024-02-14T09:37:43;98471.03;;;9.54;100.00
63907;BME280;50075;49.484;11.238;2024-02-14T09:40:09;98471.47;;;10.16;100.00
63907;BME280;50075;49.484;11.238;2024-02-14T09:42:41;98465.63;;;10.50;100.00
63907;BME280;50075;49.484;11.238;2024-02-14T09:45:08;98469.84;;;10.35;100.00
63907;BME280;50075;49.484;11.238;2024-02-14T09:47:34;98468.13;;;10.42;100.00
63907;BME280;50075;49.484;11.238;2024-02-14T09:50:03;98457.38;;;9.80;100.00
63907;BME280;50075;49.484;11.238;2024-02-14T09:52:32;98453.03;;;9.80;100.00
63907;BME280;50075;49.484;11.238;2024-02-14T09:54:58;98450.34;;;9.66;100.00
63907;BME280;50075;49.484;11.238;2024-02-14T09:57:24;98452.34;;;10.06;100.00
63907;BME280;50075;49.484;11.238;2024-02-14T09:59:51;98448.56;;;9.60;100.00
63907;BME280;50075;49.484;11.238;2024-02-14T10:02:17;98447.97;;;8.24;100.00
63907;BME280;50075;49.484;11.238;2024-02-14T10:04:43;98452.88;;;8.03;100.00
63907;BME280;50075;49.484;11.238;2024-02-14T10:07:08;98450.56;;;8.24;100.00
63907;BME280;50075;49.484;11.238;2024-02-14T10:09:40;98449.47;;;8.06;100.00
63907;BME280;50075;49.484;11.238;2024-02-14T10:12:07;98444.94;;;7.94;100.00
63907;BME280;50075;49.484;11.238;2024-02-14T10:14:34;98454.25;;;7.81;100.00
63907;BME280;50075;49.484;11.238;2024-02-14T10:17:00;98446.00;;;8.07;100.00
63907;BME280;50075;49.484;11.238;2024-02-14T10:19:25;98447.66;;;8.64;100.00
63907;BME280;50075;49.484;11.238;2024-02-14T10:22:00;98440.72;;;8.64;100.00
63907;BME280;50075;49.484;11.238;2024-02-14T10:24:28;98439.53;;;8.40;100.00
63907;BME280;50075;49.484;11.238;2024-02-14T10:26:54;98439.66;;;8.50;100.00
63907;BME280;50075;49.484;11.238;2024-02-14T10:29:20;98442.06;;;8.36;100.00
63907;BME280;50075;49.484;11.238;2024-02-14T10:31:46;98437.88;;;9.24;100.00
63907;BME280;50075;49.484;11.238;2024-02-14T10:34:12;98436.78;;;10.12;100.00
63907;BME280;50075;49.484;11.238;2024-02-14T10:36:37;98432.84;;;11.28;100.00
63907;BME280;50075;49.484;11.238;2024-02-14T10:39:05;98432.88;;;11.50;100.00
63907;BME280;50075;49.484;11.238;2024-02-14T10:41:33;98429.41;;;11.17;100.00
63907;BME280;50075;49.484;11.238;2024-02-14T10:44:04;98435.47;;;11.66;100.00
63907;BME280;50075;49.484;11.238;2024-02-14T10:46:33;98430.13;;;10.64;100.00
63907;BME280;50075;49.484;11.238;2024-02-14T10:49:05;98431.09;;;11.02;100.00
63907;BME280;50075;49.484;11.238;2024-02-14T10:51:32;98436.25;;;10.76;100.00
63907;BME280;50075;49.484;11.238;2024-02-14T10:54:09;98429.34;;;11.00;100.00
63907;BME280;50075;49.484;11.238;2024-02-14T10:56:38;98425.94;;;11.60;100.00
63907;BME280;50075;49.484;11.238;2024-02-14T10:59:05;98432.00;;;11.81;100.00
63907;BME280;50075;49.484;11.238;2024-02-14T11:01:33;98424.16;;;11.62;100.00
63907;BME280;50075;49.484;11.238;2024-02-14T11:04:01;98422.41;;;11.94;100.00
63907;BME280;50075;49.484;11.238;2024-02-14T11:06:27;98414.63;;;11.80;100.00
63907;BME280;50075;49.484;11.238;2024-02-14T11:09:04;98421.31;;;12.70;100.00
63907;BME280;50075;49.484;11.238;2024-02-14T11:11:37;98416.19;;;12.51;100.00
63907;BME280;50075;49.484;11.238;2024-02-14T11:14:03;98416.28;;;12.23;100.00
63907;BME280;50075;49.484;11.238;2024-02-14T11:16:30;98418.84;;;12.35;100.00
63907;BME280;50075;49.484;11.238;2024-02-14T11:19:09;98418.78;;;12.54;100.00
63907;BME280;50075;49.484;11.238;2024-02-14T11:21:41;98421.47;;;12.29;100.00
63907;BME280;50075;49.484;11.238;2024-02-14T11:24:12;98420.56;;;12.43;100.00
63907;BME280;50075;49.484;11.238;2024-02-14T11:26:49;98415.44;;;12.18;100.00
63907;BME280;50075;49.484;11.238;2024-02-14T11:29:16;98419.59;;;12.64;100.00
63907;BME280;50075;49.484;11.238;2024-02-14T11:31:43;98416.25;;;12.37;100.00
63907;BME280;50075;49.484;11.238;2024-02-14T11:34:11;98416.81;;;12.97;100.00
63907;BME280;50075;49.484;11.238;2024-02-14T11:36:38;98415.16;;;12.83;100.00
63907;BME280;50075;49.484;11.238;2024-02-14T11:39:04;98415.03;;;13.05;100.00
63907;BME280;50075;49.484;11.238;2024-02-14T11:41:33;98415.88;;;14.12;100.00
63907;BME280;50075;49.484;11.238;2024-02-14T11:44:02;98409.31;;;13.71;100.00
63907;BME280;50075;49.484;11.238;2024-02-14T11:46:32;98410.88;;;13.90;100.00
63907;BME280;50075;49.484;11.238;2024-02-14T11:48:59;98403.38;;;13.50;100.00
63907;BME280;50075;49.484;11.238;2024-02-14T11:51:29;98400.38;;;13.93;100.00
63907;BME280;50075;49.484;11.238;2024-02-14T11:53:58;98403.63;;;14.88;100.00
63907;BME280;50075;49.484;11.238;2024-02-14T11:56:32;98407.69;;;14.40;100.00
63907;BME280;50075;49.484;11.238;2024-02-14T11:59:01;98406.94;;;15.01;100.00
63907;BME280;50075;49.484;11.238;2024-02-14T12:01:34;98399.91;;;14.37;100.00
63907;BME280;50075;49.484;11.238;2024-02-14T12:04:05;98402.75;;;14.15;100.00
63907;BME280;50075;49.484;11.238;2024-02-14T12:06:32;98405.56;;;13.97;100.00
63907;BME280;50075;49.484;11.238;2024-02-14T12:09:00;98395.53;;;13.53;100.00
63907;BME280;50075;49.484;11.238;2024-02-14T12:11:35;98389.19;;;13.80;100.00
63907;BME280;50075;49.484;11.238;2024-02-14T12:14:06;98396.81;;;13.99;100.00
63907;BME280;50075;49.484;11.238;2024-02-14T12:19:16;98410.97;;;13.81;100.00
63907;BME280;50075;49.484;11.238;2024-02-14T12:21:42;98410.44;;;13.38;100.00
63907;BME280;50075;49.484;11.238;2024-02-14T12:24:09;98402.34;;;13.73;100.00
63907;BME280;50075;49.484;11.238;2024-02-14T12:26:36;98398.06;;;13.59;100.00
63907;BME280;50075;49.484;11.238;2024-02-14T12:29:05;98391.09;;;13.63;100.00
63907;BME280;50075;49.484;11.238;2024-02-14T12:31:31;98395.34;;;13.73;100.00
63907;BME280;50075;49.484;11.238;2024-02-14T12:33:57;98399.19;;;13.27;100.00
63907;BME280;50075;49.484;11.238;2024-02-14T12:36:32;98397.91;;;13.79;100.00
63907;BME280;50075;49.484;11.238;2024-02-14T12:39:01;98394.69;;;13.45;100.00
63907;BME280;50075;49.484;11.238;2024-02-14T12:41:31;98384.72;;;13.90;100.00
63907;BME280;50075;49.484;11.238;2024-02-14T12:43:58;98395.53;;;13.54;100.00
63907;BME280;50075;49.484;11.238;2024-02-14T12:46:23;98399.03;;;13.52;100.00